Terminal Aerodrome Forecast
Issued by NWS

Home | Current Version | Previous Version | Text Only | Print | Product List | Glossary On
Versions: 1 2 3 4 5 6 7 8 9 10 11 12 13 14 15 16
332
FTUS44 KMAF 051734
TAFFST
TAF
KFST 051734Z 0518/0618 25006KT P6SM SKC
     FM052000 33013G23KT P6SM SKC
     FM060100 33010KT P6SM SKC
     FM061400 26007KT P6SM SKC=

USA.gov is the U.S. government's official web portal to all federal, state and local government web resources and services.